Time;durP1;ratioP1;P1;durP2;ratioP2;P2;SDS_P1;SDS_P2;PMS_P1;PMS_P2;Temp;Humidity;BMP_temperature;BMP_pressure;BME280_temperature;BME280_humidity;BME280_pressure;Samples;Min_cycle;Max_cycle;Signal;HPM_P1;HPM_P2
2021/01/19 00:00:09;;;;;;;;;;;;;;;-6.00;92.87;93569.88;1065634;55;20170;-85
2021/01/19 00:01:09;;;;;;;;;;;;;;;-6.03;92.72;93578.28;1065578;55;20189;-86
2021/01/19 00:02:10;;;;;;;;;;;;;;;-6.15;92.07;93573.63;1063527;56;20176;-86
2021/01/19 00:03:11;;;;;;;;;;;;;;;-6.18;92.16;93569.03;1063483;56;20284;-85
2021/01/19 00:04:11;;;;;;;;;;;;;;;-6.18;91.90;93567.22;1063537;56;20186;-85
2021/01/19 00:05:12;;;;;;;;;;;;;;;-6.14;91.96;93572.59;1061291;56;20201;-84
2021/01/19 00:06:12;;;;;;;;;;;;;;;-6.22;91.60;93560.31;1059275;56;20167;-83
2021/01/19 00:07:13;;;;;;;;;;;;;;;-6.26;92.39;93560.13;1059074;56;20162;-85
2021/01/19 00:08:14;;;;;;;;;;;;;;;-6.25;93.51;93569.47;1063502;56;20155;-85
2021/01/19 00:09:16;;;;;;;;;;;;;;;-6.25;93.07;93559.06;1063615;56;20721;-85
2021/01/19 00:10:17;;;;;;;;;;;;;;;-6.31;92.73;93555.06;1065857;55;20157;-84
2021/01/19 00:11:17;;;;;;;;;;;;;;;-6.36;92.78;93563.75;1063320;56;20189;-85
2021/01/19 00:12:18;;;;;;;;;;;;;;;-6.36;92.92;93558.56;1063512;56;20243;-85
2021/01/19 00:13:21;;;;;;;;;;;;;;;-6.43;93.19;93570.44;1065586;55;20661;-85
2021/01/19 00:14:21;;;;;;;;;;;;;;;-6.41;92.70;93558.69;1063485;56;20662;-85
2021/01/19 00:15:22;;;;;;;;;;;;;;;-6.44;92.93;93561.09;1061380;56;20178;-85
2021/01/19 00:16:22;;;;;;;;;;;;;;;-6.47;92.94;93553.91;1061286;56;20256;-85
2021/01/19 00:17:23;;;;;;;;;;;;;;;-6.47;93.04;93556.50;1065361;55;20153;-84
2021/01/19 00:18:25;;;;;;;;;;;;;;;-6.60;92.77;93558.09;1063634;56;20158;-86
2021/01/19 00:19:25;;;;;;;;;;;;;;;-6.56;93.21;93556.44;1061567;56;20212;-85
2021/01/19 00:20:26;;;;;;;;;;;;;;;-6.55;93.43;93550.19;1063554;56;21200;-85
2021/01/19 00:21:27;;;;;;;;;;;;;;;-6.55;93.28;93560.56;1063567;56;20590;-86
2021/01/19 00:22:29;;;;;;;;;;;;;;;-6.57;93.47;93554.91;1063396;56;20181;-85
2021/01/19 00:23:29;;;;;;;;;;;;;;;-6.56;93.46;93553.09;1063361;56;20170;-85
2021/01/19 00:24:30;;;;;;;;;;;;;;;-6.57;93.96;93543.75;1059095;56;20159;-88
2021/01/19 00:25:30;;;;;;;;;;;;;;;-6.57;94.00;93543.75;1058863;56;20213;-86
2021/01/19 00:26:32;;;;;;;;;;;;;;;-6.64;93.86;93549.38;1063487;55;20158;-84
2021/01/19 00:27:33;;;;;;;;;;;;;;;-6.67;93.55;93539.56;1063425;56;20280;-85
2021/01/19 00:28:34;;;;;;;;;;;;;;;-6.68;93.78;93546.59;1061195;56;20159;-86
2021/01/19 00:29:35;;;;;;;;;;;;;;;-6.78;93.02;93544.25;1061475;56;20332;-85
2021/01/19 00:30:41;;;;;;;;;;;;;;;-6.73;93.33;93541.50;1061403;56;20214;-86
2021/01/19 00:31:42;;;;;;;;;;;;;;;-6.71;94.10;93534.19;1063355;56;20192;-85
2021/01/19 00:32:43;;;;;;;;;;;;;;;-6.71;93.43;93536.03;1063561;56;20586;-84
2021/01/19 00:33:44;;;;;;;;;;;;;;;-6.74;92.88;93537.37;1065556;55;20153;-84
2021/01/19 00:34:44;;;;;;;;;;;;;;;-6.73;93.28;93533.72;1065376;55;20166;-83
2021/01/19 00:35:45;;;;;;;;;;;;;;;-6.74;93.24;93531.44;1061056;56;20251;-85
2021/01/19 00:36:48;;;;;;;;;;;;;;;-6.74;93.12;93523.63;1061131;56;20190;-85
2021/01/19 00:37:49;;;;;;;;;;;;;;;-6.76;92.92;93530.94;1065400;55;20224;-85
2021/01/19 00:38:49;;;;;;;;;;;;;;;-6.74;92.94;93531.44;1067438;55;20239;-85
2021/01/19 00:39:50;;;;;;;;;;;;;;;-6.81;93.77;93521.44;1065375;55;20153;-85
2021/01/19 00:40:50;;;;;;;;;;;;;;;-6.78;93.47;93520.84;1060841;56;20684;-86
2021/01/19 00:41:50;;;;;;;;;;;;;;;-6.83;93.61;93520.97;1061026;56;20162;-86
2021/01/19 00:42:51;;;;;;;;;;;;;;;-6.81;93.88;93518.06;1063330;56;20255;-86
2021/01/19 00:43:51;;;;;;;;;;;;;;;-6.84;93.83;93519.44;1063199;56;20162;-86
2021/01/19 00:44:52;;;;;;;;;;;;;;;-6.90;93.86;93518.78;1061027;56;20165;-85
2021/01/19 00:45:53;;;;;;;;;;;;;;;-6.93;93.74;93518.62;1060893;56;20249;-85
2021/01/19 00:46:53;;;;;;;;;;;;;;;-6.97;93.61;93512.50;1060792;56;20150;-85
2021/01/19 00:47:53;;;;;;;;;;;;;;;-7.00;94.21;93508.63;1063305;56;20260;-84
2021/01/19 00:48:54;;;;;;;;;;;;;;;-6.98;94.38;93500.53;1063020;56;20177;-84
2021/01/19 00:49:54;;;;;;;;;;;;;;;-6.96;94.11;93501.78;1063048;56;20193;-87
2021/01/19 00:50:55;;;;;;;;;;;;;;;-6.93;94.19;93497.84;1063250;56;20272;-85
2021/01/19 00:51:55;;;;;;;;;;;;;;;-6.93;94.41;93500.44;1060961;56;20185;-86
2021/01/19 00:52:56;;;;;;;;;;;;;;;-6.96;94.38;93504.38;1063271;56;20185;-85
2021/01/19 00:53:56;;;;;;;;;;;;;;;-6.93;94.68;93495.25;1063188;56;20591;-84
2021/01/19 00:54:57;;;;;;;;;;;;;;;-6.86;94.58;93501.53;1063339;56;20240;-84
2021/01/19 00:55:57;;;;;;;;;;;;;;;-6.81;94.79;93502.47;1067441;55;20657;-84
2021/01/19 00:56:58;;;;;;;;;;;;;;;-6.83;94.55;93507.97;1065414;55;20255;-85
2021/01/19 00:57:58;;;;;;;;;;;;;;;-6.91;94.43;93504.25;1063183;56;20177;-85
2021/01/19 00:58:59;;;;;;;;;;;;;;;-6.96;94.67;93504.38;1063207;56;20190;-85
2021/01/19 00:59:59;;;;;;;;;;;;;;;-6.96;94.67;93504.38;1063062;56;20169;-85
2021/01/19 01:01:00;;;;;;;;;;;;;;;-6.88;95.05;93502.91;1063081;56;20162;-84
2021/01/19 01:02:02;;;;;;;;;;;;;;;-6.88;94.66;93505.50;1065346;55;21106;-84
2021/01/19 01:03:02;;;;;;;;;;;;;;;-6.91;94.92;93501.66;1063174;56;20154;-84
2021/01/19 01:04:03;;;;;;;;;;;;;;;-6.89;94.89;93499.56;1065321;55;20614;-84
2021/01/19 01:05:05;;;;;;;;;;;;;;;-6.92;94.66;93504.56;1065282;55;20714;-84
2021/01/19 01:06:05;;;;;;;;;;;;;;;-6.90;94.29;93499.84;1067550;55;20200;-86
2021/01/19 01:07:08;;;;;;;;;;;;;;;-6.93;94.41;93503.03;1067452;55;20183;-84
2021/01/19 01:08:08;;;;;;;;;;;;;;;-6.98;94.87;93508.34;1063204;56;20157;-85
2021/01/19 01:09:09;;;;;;;;;;;;;;;-7.02;94.76;93499.59;1063046;56;20162;-84
2021/01/19 01:10:13;;;;;;;;;;;;;;;-6.94;95.23;93507.44;1065208;55;20150;-86
2021/01/19 01:11:14;;;;;;;;;;;;;;;-6.97;94.86;93502.88;1063101;56;20162;-84
2021/01/19 01:12:14;;;;;;;;;;;;;;;-7.02;94.57;93500.37;1060793;56;20177;-84
2021/01/19 01:13:16;;;;;;;;;;;;;;;-7.12;93.90;93500.59;1060890;56;20174;-84
2021/01/19 01:14:17;;;;;;;;;;;;;;;-7.10;94.08;93504.47;1063230;55;20658;-85
2021/01/19 01:15:27;;;;;;;;;;;;;;;-7.15;93.96;93496.78;1065186;55;20169;-84
2021/01/19 01:16:28;;;;;;;;;;;;;;;-7.30;92.96;93488.56;1063427;55;20161;-85
2021/01/19 01:17:29;;;;;;;;;;;;;;;-7.29;93.69;93488.25;1065405;55;20154;-84
2021/01/19 01:18:33;;;;;;;;;;;;;;;-7.29;93.07;93490.84;1065239;55;20162;-84
2021/01/19 01:19:33;;;;;;;;;;;;;;;-7.16;92.36;93484.06;1063222;55;20177;-85
2021/01/19 01:20:34;;;;;;;;;;;;;;;-7.35;92.72;93486.84;1065268;55;20174;-83
2021/01/19 01:21:37;;;;;;;;;;;;;;;-7.35;93.61;93492.81;1061040;56;20170;-85
2021/01/19 01:22:42;;;;;;;;;;;;;;;-7.33;93.75;93492.53;1063611;55;20561;-84
2021/01/19 01:23:42;;;;;;;;;;;;;;;-7.39;93.92;93489.28;1063272;56;20666;-86
2021/01/19 01:24:43;;;;;;;;;;;;;;;-7.41;94.11;93493.22;1063013;56;20247;-84
2021/01/19 01:25:44;;;;;;;;;;;;;;;-7.49;93.68;93489.50;1065129;55;20209;-84
2021/01/19 01:26:45;;;;;;;;;;;;;;;-7.46;94.09;93488.12;1063157;55;20181;-84
2021/01/19 01:27:46;;;;;;;;;;;;;;;-7.52;93.36;93491.91;1065256;55;20205;-86
2021/01/19 01:28:48;;;;;;;;;;;;;;;-7.52;92.92;93487.50;1065352;55;20635;-85
2021/01/19 01:29:48;;;;;;;;;;;;;;;-7.54;93.66;93486.25;1065087;55;20166;-85
2021/01/19 01:30:49;;;;;;;;;;;;;;;-7.53;93.45;93485.97;1063026;56;20650;-87
2021/01/19 01:31:49;;;;;;;;;;;;;;;-7.54;93.08;93488.84;1065130;55;20185;-85
2021/01/19 01:32:52;;;;;;;;;;;;;;;-7.54;93.29;93486.25;1065195;55;20670;-84
2021/01/19 01:33:54;;;;;;;;;;;;;;;-7.61;92.68;93495.19;1061291;56;20194;-85
2021/01/19 01:34:54;;;;;;;;;;;;;;;-7.58;92.48;93487.91;1060747;56;20182;-84
2021/01/19 01:35:54;;;;;;;;;;;;;;;-7.61;92.86;93484.81;1060787;56;20155;-85
2021/01/19 01:36:55;;;;;;;;;;;;;;;-7.68;92.64;93484.47;1063023;56;20166;-85
2021/01/19 01:37:55;;;;;;;;;;;;;;;-7.73;92.60;93487.16;1060896;56;20182;-84
2021/01/19 01:38:56;;;;;;;;;;;;;;;-7.78;92.03;93478.72;1058841;56;20269;-84
2021/01/19 01:39:57;;;;;;;;;;;;;;;-7.73;92.23;93479.38;1063273;56;20273;-86
2021/01/19 01:40:57;;;;;;;;;;;;;;;-7.77;92.26;93468.06;1060934;56;20584;-84
2021/01/19 01:41:58;;;;;;;;;;;;;;;-7.76;92.69;93471.44;1063141;56;20157;-84
2021/01/19 01:43:00;;;;;;;;;;;;;;;-7.76;92.42;93468.81;1063264;56;20263;-85
2021/01/19 01:44:01;;;;;;;;;;;;;;;-7.80;92.65;93471.22;1065344;55;20162;-85
2021/01/19 01:45:03;;;;;;;;;;;;;;;-7.78;91.91;93470.94;1063016;56;20182;-84
2021/01/19 01:46:04;;;;;;;;;;;;;;;-7.81;92.48;93472.31;1060984;56;20174;-85
2021/01/19 01:47:12;;;;;;;;;;;;;;;-7.82;92.78;93465.56;1061252;56;20706;-84
2021/01/19 01:48:12;;;;;;;;;;;;;;;-7.93;92.81;93470.19;1063310;56;20217;-86
2021/01/19 01:49:13;;;;;;;;;;;;;;;-7.95;93.22;93464.53;1063082;56;20186;-85
2021/01/19 01:50:15;;;;;;;;;;;;;;;-7.97;93.14;93466.66;1058751;56;20214;-84
2021/01/19 01:51:16;;;;;;;;;;;;;;;-7.99;93.24;93461.00;1063212;55;20200;-85
2021/01/19 01:52:18;;;;;;;;;;;;;;;-8.00;93.15;93459.44;1064867;55;20169;-83
2021/01/19 01:53:18;;;;;;;;;;;;;;;-8.00;92.83;93456.84;1065246;55;20570;-85
2021/01/19 01:54:19;;;;;;;;;;;;;;;-8.03;92.83;93461.84;1063127;56;20178;-85
2021/01/19 01:55:20;;;;;;;;;;;;;;;-8.06;92.56;93458.03;1058714;56;20596;-85
2021/01/19 01:56:20;;;;;;;;;;;;;;;-8.14;92.20;93456.13;1060894;56;20182;-86
2021/01/19 01:57:21;;;;;;;;;;;;;;;-8.03;91.88;93457.44;1063044;56;20201;-85
2021/01/19 01:58:22;;;;;;;;;;;;;;;-8.08;91.79;93449.00;1062725;56;20188;-83
2021/01/19 01:59:23;;;;;;;;;;;;;;;-8.16;92.09;93453.06;1060775;56;20623;-83
2021/01/19 02:00:24;;;;;;;;;;;;;;;-8.14;92.35;93456.88;1060666;56;20163;-85
2021/01/19 02:01:25;;;;;;;;;;;;;;;-8.19;91.77;93462.16;1060726;56;20301;-84
2021/01/19 02:02:25;;;;;;;;;;;;;;;-8.20;91.74;93455.44;1060678;56;20264;-85
2021/01/19 02:03:27;;;;;;;;;;;;;;;-8.23;92.39;93453.44;1062926;56;20185;-86
2021/01/19 02:04:27;;;;;;;;;;;;;;;-8.23;92.32;93452.66;1063043;56;20173;-86
2021/01/19 02:05:29;;;;;;;;;;;;;;;-8.28;92.68;93456.13;1062772;56;20165;-85
2021/01/19 02:06:30;;;;;;;;;;;;;;;-8.25;92.29;93457.34;1058707;56;20651;-85
2021/01/19 02:07:38;;;;;;;;;;;;;;;-8.26;92.08;93448.06;1060748;56;20222;-85
2021/01/19 02:09:01;;;;;;;;;;;;;;;-8.33;92.38;93445.87;1065568;55;20243;-86
2021/01/19 02:10:09;;;;;;;;;;;;;;;-8.34;92.78;93446.13;1062827;56;20194;-85
2021/01/19 02:11:33;;;;;;;;;;;;;;;-8.34;92.43;93441.72;1063149;56;20154;-86
2021/01/19 02:12:40;;;;;;;;;;;;;;;-8.24;92.60;93449.31;1062493;55;20169;-85
2021/01/19 02:13:50;;;;;;;;;;;;;;;-8.28;91.75;93450.19;1065093;55;20193;-84
2021/01/19 02:15:02;;;;;;;;;;;;;;;-8.34;91.84;93446.91;1063176;56;20162;-84
2021/01/19 02:16:18;;;;;;;;;;;;;;;-8.36;92.41;93446.44;1063135;56;20184;-85
2021/01/19 02:17:19;;;;;;;;;;;;;;;-8.37;92.30;93442.34;1062627;56;20184;-84
2021/01/19 02:18:37;;;;;;;;;;;;;;;-8.34;91.99;93446.91;1060519;56;20658;-85
2021/01/19 02:19:37;;;;;;;;;;;;;;;-8.39;91.93;93440.03;1064378;55;20166;-84
2021/01/19 02:20:47;;;;;;;;;;;;;;;-8.38;92.01;93448.59;1062954;56;20259;-87
2021/01/19 02:21:51;;;;;;;;;;;;;;;-8.46;91.66;93442.25;1063602;55;20166;-86
2021/01/19 02:23:03;;;;;;;;;;;;;;;-8.45;91.85;93440.44;1064977;55;20162;-85
2021/01/19 02:24:15;;;;;;;;;;;;;;;-8.40;91.80;93437.72;1060969;56;20745;-84
2021/01/19 02:25:31;;;;;;;;;;;;;;;-8.33;91.50;93442.50;1059386;56;20167;-84
2021/01/19 02:26:31;;;;;;;;;;;;;;;-8.43;90.76;93443.47;1059634;56;20171;-83
2021/01/19 02:27:35;;;;;;;;;;;;;;;-8.48;90.85;93446.19;1058545;56;20170;-83
2021/01/19 02:28:35;;;;;;;;;;;;;;;-8.48;90.64;93435.81;1063038;55;20184;-85
2021/01/19 02:29:45;;;;;;;;;;;;;;;-8.52;90.31;93435.62;1065265;55;20665;-83
2021/01/19 02:30:50;;;;;;;;;;;;;;;-8.57;91.06;93440.13;1062762;56;20218;-84
2021/01/19 02:32:10;;;;;;;;;;;;;;;-8.49;90.36;93436.88;1063059;55;20150;-85
2021/01/19 02:33:33;;;;;;;;;;;;;;;-8.57;89.33;93434.94;1065883;55;20161;-84
2021/01/19 02:34:41;;;;;;;;;;;;;;;-8.73;88.71;93430.06;1062813;56;20292;-84
2021/01/19 02:35:49;;;;;;;;;;;;;;;-8.68;89.42;93431.81;1063492;55;20206;-84
2021/01/19 02:37:08;;;;;;;;;;;;;;;-8.76;89.33;93430.63;1063059;56;20162;-83
2021/01/19 02:38:19;;;;;;;;;;;;;;;-8.70;89.33;93426.88;1063634;56;20157;-83
2021/01/19 02:39:24;;;;;;;;;;;;;;;-8.68;89.32;93427.38;1063292;56;21147;-85
2021/01/19 02:40:25;;;;;;;;;;;;;;;-8.74;88.90;93420.75;1062659;56;20177;-84
2021/01/19 02:41:26;;;;;;;;;;;;;;;-8.75;88.92;93421.03;1058465;56;20249;-85
2021/01/19 02:42:30;;;;;;;;;;;;;;;-8.71;88.79;93424.59;1062901;55;20190;-83
2021/01/19 02:43:30;;;;;;;;;;;;;;;-8.75;88.58;93426.22;1065094;55;20245;-87
2021/01/19 02:44:34;;;;;;;;;;;;;;;-8.82;89.43;93424.03;1062695;56;20165;-84
2021/01/19 02:45:35;;;;;;;;;;;;;;;-8.84;89.69;93412.41;1062777;56;20173;-86
2021/01/19 02:46:36;;;;;;;;;;;;;;;-8.81;89.91;93419.59;1062744;55;20205;-86
2021/01/19 02:47:40;;;;;;;;;;;;;;;-8.79;89.64;93420.06;1062664;56;20610;-84
2021/01/19 02:48:40;;;;;;;;;;;;;;;-8.80;89.74;93415.97;1060774;56;20651;-85
2021/01/19 02:49:44;;;;;;;;;;;;;;;-8.81;89.82;93414.44;1060723;56;20155;-85
2021/01/19 02:50:44;;;;;;;;;;;;;;;-8.77;90.03;93413.56;1058786;56;20269;-84
2021/01/19 02:51:46;;;;;;;;;;;;;;;-8.77;89.58;93417.97;1062683;56;20207;-85
2021/01/19 02:52:48;;;;;;;;;;;;;;;-8.94;89.13;93414.13;1060604;56;20655;-85
2021/01/19 02:53:51;;;;;;;;;;;;;;;-8.93;89.23;93412.31;1062926;55;20158;-84
2021/01/19 02:54:52;;;;;;;;;;;;;;;-8.96;89.37;93413.63;1062780;56;20198;-85
2021/01/19 02:55:52;;;;;;;;;;;;;;;-8.95;89.15;93411.84;1058665;56;20178;-84
2021/01/19 02:56:53;;;;;;;;;;;;;;;-8.98;89.21;93409.81;1058662;56;20174;-85
2021/01/19 02:58:26;;;;;;;;;;;;;;;-9.02;89.06;93407.03;1060800;56;20188;-85
2021/01/19 02:59:45;;;;;;;;;;;;;;;-9.10;89.01;93401.72;1059216;56;20201;-84
2021/01/19 03:01:04;;;;;;;;;;;;;;;-9.11;88.97;93402.78;1065413;55;20188;-85
2021/01/19 03:02:10;;;;;;;;;;;;;;;-8.97;89.31;93406.16;1062689;56;20197;-85
2021/01/19 03:03:12;;;;;;;;;;;;;;;-9.03;88.50;93404.72;1058793;56;20185;-84
2021/01/19 03:04:13;;;;;;;;;;;;;;;-9.06;88.70;93413.81;1060667;56;20730;-85
2021/01/19 03:05:16;;;;;;;;;;;;;;;-9.07;88.31;93403.75;1062817;56;20227;-84
2021/01/19 03:06:18;;;;;;;;;;;;;;;-9.08;88.88;93407.41;1062757;56;20668;-85
2021/01/19 03:07:21;;;;;;;;;;;;;;;-9.07;89.12;93407.13;1064619;55;20188;-84
2021/01/19 03:08:21;;;;;;;;;;;;;;;-9.01;88.58;93402.59;1062768;56;20210;-84
2021/01/19 03:09:22;;;;;;;;;;;;;;;-9.06;88.61;93400.09;1060162;56;20169;-84
2021/01/19 03:10:22;;;;;;;;;;;;;;;-9.12;88.45;93404.62;1062589;56;20158;-83
2021/01/19 03:11:24;;;;;;;;;;;;;;;-9.04;88.89;93403.16;1064716;55;20194;-83
2021/01/19 03:12:25;;;;;;;;;;;;;;;-9.04;88.58;93403.16;1062446;56;20154;-83
2021/01/19 03:13:26;;;;;;;;;;;;;;;-8.96;88.09;93407.69;1060581;56;20261;-83
2021/01/19 03:14:26;;;;;;;;;;;;;;;-9.05;87.07;93405.00;1060630;56;20174;-84
2021/01/19 03:15:27;;;;;;;;;;;;;;;-9.21;87.38;93404.50;1060652;56;20631;-83
2021/01/19 03:16:27;;;;;;;;;;;;;;;-9.14;87.61;93401.53;1062745;56;20166;-85
2021/01/19 03:17:28;;;;;;;;;;;;;;;-9.22;87.46;93397.81;1062696;56;20154;-84
2021/01/19 03:18:28;;;;;;;;;;;;;;;-9.25;88.00;93395.78;1062525;56;20263;-84
2021/01/19 03:19:29;;;;;;;;;;;;;;;-9.24;87.98;93392.13;1062775;56;20240;-83
2021/01/19 03:20:30;;;;;;;;;;;;;;;-9.16;88.16;93391.47;1060724;56;20182;-84
2021/01/19 03:21:30;;;;;;;;;;;;;;;-9.32;87.57;93389.44;1060755;56;20162;-83
2021/01/19 03:22:31;;;;;;;;;;;;;;;-9.28;87.96;93393.75;1060651;56;20159;-84
2021/01/19 03:23:32;;;;;;;;;;;;;;;-9.23;87.86;93396.25;1062727;56;20197;-83
2021/01/19 03:24:33;;;;;;;;;;;;;;;-9.26;88.02;93389.06;1062537;55;20184;-85
2021/01/19 03:25:33;;;;;;;;;;;;;;;-9.33;88.32;93396.44;1062665;56;20173;-84
2021/01/19 03:26:33;;;;;;;;;;;;;;;-9.33;88.26;93393.84;1064791;56;20176;-84
2021/01/19 03:27:34;;;;;;;;;;;;;;;-9.34;88.55;93394.13;1064809;56;20157;-85
2021/01/19 03:28:35;;;;;;;;;;;;;;;-9.39;88.51;93389.81;1060572;56;20166;-84
2021/01/19 03:29:36;;;;;;;;;;;;;;;-9.42;88.88;93396.31;1062780;55;20157;-84
2021/01/19 03:30:36;;;;;;;;;;;;;;;-9.39;89.11;93393.16;1066985;55;20162;-85
2021/01/19 03:31:37;;;;;;;;;;;;;;;-9.35;88.15;93387.41;1062832;56;21075;-83
2021/01/19 03:32:37;;;;;;;;;;;;;;;-9.34;88.90;93391.53;1062730;56;20643;-83
2021/01/19 03:33:38;;;;;;;;;;;;;;;-9.40;88.62;93383.84;1064713;56;20157;-85
2021/01/19 03:34:39;;;;;;;;;;;;;;;-9.41;88.72;93378.97;1064844;56;20661;-86
2021/01/19 03:35:40;;;;;;;;;;;;;;;-9.40;88.63;93381.25;1064970;55;21084;-84
2021/01/19 03:36:40;;;;;;;;;;;;;;;-9.40;88.55;93385.66;1062831;56;20193;-84
2021/01/19 03:37:41;;;;;;;;;;;;;;;-9.43;89.25;93373.31;1062493;56;20154;-84
2021/01/19 03:38:41;;;;;;;;;;;;;;;-9.44;89.27;93376.94;1064769;56;20185;-86
2021/01/19 03:39:42;;;;;;;;;;;;;;;-9.37;88.91;93379.94;1062666;56;20185;-85
2021/01/19 03:40:42;;;;;;;;;;;;;;;-9.36;89.13;93376.28;1060718;56;20177;-84
2021/01/19 03:41:43;;;;;;;;;;;;;;;-9.37;89.32;93382.53;1060287;56;20205;-85
2021/01/19 03:42:43;;;;;;;;;;;;;;;-9.35;89.51;93385.56;1060274;56;20181;-84
2021/01/19 03:43:44;;;;;;;;;;;;;;;-9.39;89.58;93388.00;1062598;56;20162;-85
2021/01/19 03:44:44;;;;;;;;;;;;;;;-9.43;89.53;93381.84;1062814;56;20180;-84
2021/01/19 03:45:45;;;;;;;;;;;;;;;-9.47;89.33;93377.53;1062600;56;20181;-84
2021/01/19 03:46:45;;;;;;;;;;;;;;;-9.43;89.21;93384.44;1064762;56;20192;-84
2021/01/19 03:47:46;;;;;;;;;;;;;;;-9.46;89.16;93372.06;1064937;56;20165;-84
2021/01/19 03:48:46;;;;;;;;;;;;;;;-9.38;88.97;93384.34;1064946;56;20154;-84
2021/01/19 03:49:47;;;;;;;;;;;;;;;-9.45;88.90;93385.75;1062721;56;20165;-83
2021/01/19 03:50:47;;;;;;;;;;;;;;;-9.43;89.55;93386.25;1064866;56;20243;-84
2021/01/19 03:51:48;;;;;;;;;;;;;;;-9.49;89.39;93384.78;1064804;56;20162;-83
2021/01/19 03:52:48;;;;;;;;;;;;;;;-9.52;89.42;93383.56;1060668;56;20159;-84
2021/01/19 03:53:49;;;;;;;;;;;;;;;-9.46;89.65;93376.47;1062637;56;20232;-84
2021/01/19 03:54:50;;;;;;;;;;;;;;;-9.48;89.98;93379.34;1062780;56;20185;-85
2021/01/19 03:55:50;;;;;;;;;;;;;;;-9.48;89.75;93384.53;1060499;56;20174;-85
2021/01/19 03:56:51;;;;;;;;;;;;;;;-9.50;88.99;93371.09;1064646;56;20638;-84
2021/01/19 03:57:51;;;;;;;;;;;;;;;-9.51;89.37;93374.72;1062482;56;20174;-84
2021/01/19 03:58:52;;;;;;;;;;;;;;;-9.55;88.95;93375.59;1062690;56;20255;-83
2021/01/19 03:59:52;;;;;;;;;;;;;;;-9.53;89.13;93378.63;1062561;56;20146;-83
2021/01/19 04:00:53;;;;;;;;;;;;;;;-9.46;89.53;93376.47;1062464;56;20170;-84
2021/01/19 04:01:53;;;;;;;;;;;;;;;-9.47;89.02;93386.06;1064772;56;20271;-85
2021/01/19 04:02:53;;;;;;;;;;;;;;;-9.51;88.44;93376.56;1062609;56;20173;-85
2021/01/19 04:03:54;;;;;;;;;;;;;;;-9.57;89.14;93375.09;1062399;56;20244;-85
2021/01/19 04:04:55;;;;;;;;;;;;;;;-9.59;89.61;93367.63;1062448;56;20264;-86
2021/01/19 04:05:55;;;;;;;;;;;;;;;-9.53;88.93;93366.47;1062443;56;20182;-84
2021/01/19 04:06:55;;;;;;;;;;;;;;;-9.48;89.17;93363.81;1067071;55;20205;-85
2021/01/19 04:07:56;;;;;;;;;;;;;;;-9.49;89.06;93366.69;1064821;56;20271;-86
2021/01/19 04:08:57;;;;;;;;;;;;;;;-9.46;88.92;93355.78;1062604;56;20179;-84
2021/01/19 04:09:57;;;;;;;;;;;;;;;-9.55;88.86;93360.81;1060322;56;20155;-83
2021/01/19 04:10:58;;;;;;;;;;;;;;;-9.55;89.00;93353.06;1064697;56;20675;-83
2021/01/19 04:11:58;;;;;;;;;;;;;;;-9.55;89.37;93340.13;1064514;56;20251;-83
2021/01/19 04:12:58;;;;;;;;;;;;;;;-9.50;89.96;93354.81;1064625;56;20185;-85
2021/01/19 04:13:59;;;;;;;;;;;;;;;-9.41;89.92;93343.50;1066779;55;20188;-82
2021/01/19 04:15:00;;;;;;;;;;;;;;;-9.52;89.15;93336.97;1064531;56;20590;-86
2021/01/19 04:16:01;;;;;;;;;;;;;;;-9.55;89.57;93337.53;1066811;55;20184;-83
2021/01/19 04:17:01;;;;;;;;;;;;;;;-9.50;89.56;93328.94;1067615;55;20180;-84
2021/01/19 04:18:02;;;;;;;;;;;;;;;-9.44;89.18;93327.78;1066940;55;20660;-83
2021/01/19 04:19:02;;;;;;;;;;;;;;;-9.55;88.30;93334.19;1062345;56;20158;-86
2021/01/19 04:20:03;;;;;;;;;;;;;;;-9.50;88.32;93324.53;1062106;56;20169;-83
2021/01/19 04:21:04;;;;;;;;;;;;;;;-9.51;88.30;93322.22;1064793;55;20268;-84
2021/01/19 04:22:04;;;;;;;;;;;;;;;-9.46;88.65;93316.97;1062658;56;20697;-83
2021/01/19 04:23:05;;;;;;;;;;;;;;;-9.43;88.67;93317.16;1067025;55;20177;-84
2021/01/19 04:24:06;;;;;;;;;;;;;;;-9.46;88.34;93322.91;1064748;55;20178;-84
2021/01/19 04:25:06;;;;;;;;;;;;;;;-9.41;88.53;93320.22;1062668;56;20185;-83
2021/01/19 04:26:07;;;;;;;;;;;;;;;-9.51;88.54;93314.47;1062768;56;20198;-84
2021/01/19 04:27:08;;;;;;;;;;;;;;;-9.47;89.12;93315.44;1065019;55;20641;-84
2021/01/19 04:28:09;;;;;;;;;;;;;;;-9.48;89.12;93313.88;1060650;56;20174;-85
2021/01/19 04:29:10;;;;;;;;;;;;;;;-9.49;88.80;93309.75;1062962;55;20594;-84
2021/01/19 04:30:11;;;;;;;;;;;;;;;-9.45;89.69;93310.72;1062694;56;20143;-83
2021/01/19 04:31:11;;;;;;;;;;;;;;;-9.34;90.17;93312.09;1062796;56;20154;-83
2021/01/19 04:32:12;;;;;;;;;;;;;;;-9.38;90.17;93311.13;1062734;56;20181;-85
2021/01/19 04:33:12;;;;;;;;;;;;;;;-9.41;90.07;93309.87;1062694;56;20665;-84
2021/01/19 04:34:13;;;;;;;;;;;;;;;-9.31;90.37;93306.31;1060647;56;20245;-83
2021/01/19 04:35:14;;;;;;;;;;;;;;;-9.30;90.78;93307.13;1062763;56;20177;-85
2021/01/19 04:36:14;;;;;;;;;;;;;;;-9.31;90.68;93305.56;1064918;55;20181;-82
2021/01/19 04:37:15;;;;;;;;;;;;;;;-9.28;91.18;93307.59;1064663;55;20221;-84
2021/01/19 04:38:15;;;;;;;;;;;;;;;-9.27;90.87;93301.34;1065045;55;20177;-84
2021/01/19 04:39:16;;;;;;;;;;;;;;;-9.24;90.17;93300.78;1065005;55;20189;-85
2021/01/19 04:40:16;;;;;;;;;;;;;;;-9.14;90.24;93306.50;1064852;55;20162;-85
2021/01/19 04:41:18;;;;;;;;;;;;;;;-9.08;90.46;93301.25;1060696;56;20162;-85
2021/01/19 04:42:19;;;;;;;;;;;;;;;-9.11;90.45;93292.25;1062729;55;20158;-85
2021/01/19 04:43:20;;;;;;;;;;;;;;;-9.14;90.20;93293.56;1066948;55;20232;-84
2021/01/19 04:44:21;;;;;;;;;;;;;;;-9.13;89.84;93292.53;1069118;55;20197;-85
2021/01/19 04:45:21;;;;;;;;;;;;;;;-9.08;89.88;93296.09;1069075;55;20196;-84
2021/01/19 04:46:23;;;;;;;;;;;;;;;-9.11;89.23;93288.88;1064752;55;20166;-83
2021/01/19 04:47:24;;;;;;;;;;;;;;;-9.09;89.62;93292.72;1062606;56;20162;-84
2021/01/19 04:48:24;;;;;;;;;;;;;;;-9.03;89.76;93286.41;1060473;56;20159;-83
2021/01/19 04:49:25;;;;;;;;;;;;;;;-8.98;90.53;93288.88;1060407;56;20717;-84
2021/01/19 04:50:28;;;;;;;;;;;;;;;-8.93;90.24;93280.25;1062508;56;20165;-87
2021/01/19 04:51:32;;;;;;;;;;;;;;;-8.85;90.44;93271.78;1062712;56;20271;-87
2021/01/19 04:52:33;;;;;;;;;;;;;;;-8.88;90.31;93285.31;1062988;55;20629;-84
2021/01/19 04:53:37;;;;;;;;;;;;;;;-8.88;91.50;93278.31;1062481;56;20170;-83
2021/01/19 04:54:45;;;;;;;;;;;;;;;-8.75;92.18;93281.16;1062715;56;20954;-86
2021/01/19 04:55:51;;;;;;;;;;;;;;;-8.74;92.33;93280.88;1063089;55;20222;-83
2021/01/19 04:56:55;;;;;;;;;;;;;;;-8.71;92.29;93282.88;1064870;55;20161;-85
2021/01/19 04:57:57;;;;;;;;;;;;;;;-8.66;92.70;93269.06;1067028;55;20177;-83
2021/01/19 04:58:58;;;;;;;;;;;;;;;-8.65;92.64;93271.37;1062629;56;20185;-82
2021/01/19 05:00:00;;;;;;;;;;;;;;;-8.65;92.43;93275.75;1062723;56;20613;-83
2021/01/19 05:01:08;;;;;;;;;;;;;;;-8.59;92.55;93272.03;1064798;55;20180;-85
2021/01/19 05:02:08;;;;;;;;;;;;;;;-8.60;92.16;93280.06;1066890;55;20711;-84
2021/01/19 05:03:13;;;;;;;;;;;;;;;-8.52;91.82;93272.38;1064605;55;20158;-84
2021/01/19 05:04:32;;;;;;;;;;;;;;;-8.53;91.86;93277.84;1060758;56;20177;-84
2021/01/19 05:05:49;;;;;;;;;;;;;;;-8.44;92.25;93281.28;1065306;55;20185;-84
2021/01/19 05:07:08;;;;;;;;;;;;;;;-8.49;92.05;93289.16;1066729;55;20179;-84
2021/01/19 05:08:17;;;;;;;;;;;;;;;-8.42;92.25;93277.34;1061719;56;20193;-84
2021/01/19 05:09:21;;;;;;;;;;;;;;;-8.48;91.87;93280.31;1062820;56;20666;-85
2021/01/19 05:10:29;;;;;;;;;;;;;;;-8.35;91.79;93279.50;1062826;55;20185;-83
2021/01/19 05:11:30;;;;;;;;;;;;;;;-8.36;91.87;93272.78;1067150;55;20721;-83
2021/01/19 05:12:33;;;;;;;;;;;;;;;-8.28;91.50;93272.09;1066878;55;20185;-83
2021/01/19 05:13:36;;;;;;;;;;;;;;;-8.30;91.17;93271.59;1064805;55;20161;-83
2021/01/19 05:14:43;;;;;;;;;;;;;;;-8.26;91.55;93272.53;1065223;55;20162;-83
2021/01/19 05:15:44;;;;;;;;;;;;;;;-8.30;91.59;93266.41;1062663;56;20243;-83
2021/01/19 05:16:44;;;;;;;;;;;;;;;-8.18;91.43;93271.06;1062544;56;20209;-84
2021/01/19 05:17:47;;;;;;;;;;;;;;;-8.29;90.57;93269.78;1062679;56;20256;-86
2021/01/19 05:18:48;;;;;;;;;;;;;;;-8.29;90.93;93274.97;1062411;56;20653;-83
2021/01/19 05:19:50;;;;;;;;;;;;;;;-8.27;91.06;93268.41;1062604;56;20230;-84
2021/01/19 05:20:51;;;;;;;;;;;;;;;-8.19;91.40;93265.13;1064724;55;20629;-85
2021/01/19 05:21:53;;;;;;;;;;;;;;;-8.25;91.70;93260.34;1064574;55;20173;-85
2021/01/19 05:22:56;;;;;;;;;;;;;;;-8.24;91.66;93265.25;1064580;55;20653;-87
2021/01/19 05:23:56;;;;;;;;;;;;;;;-8.23;91.80;93264.19;1062500;56;20564;-83
2021/01/19 05:24:57;;;;;;;;;;;;;;;-8.23;92.01;93264.19;1060440;56;20158;-84